createdAt,value
2019-02-02T00:00:52.283Z,51.40
2019-02-02T00:03:19.742Z,51.30
2019-02-02T00:05:47.220Z,51.40
2019-02-02T00:08:14.681Z,51.10
2019-02-02T00:10:42.144Z,51.80
2019-02-02T00:13:09.610Z,51.60
2019-02-02T00:15:37.068Z,51.50
2019-02-02T00:18:05.038Z,51.40
2019-02-02T00:20:32.507Z,51.30
2019-02-02T00:22:59.964Z,51.30
2019-02-02T00:25:27.427Z,51.20
2019-02-02T00:27:54.899Z,51.10
2019-02-02T00:30:22.362Z,51.10
2019-02-02T00:32:49.830Z,51.00
2019-02-02T00:35:17.354Z,51.10
2019-02-02T00:37:44.819Z,51.10
2019-02-02T00:40:16.317Z,51.30
2019-02-02T00:42:43.777Z,51.40
2019-02-02T00:45:12.878Z,51.40
2019-02-02T00:47:40.331Z,51.40
2019-02-02T00:50:09.069Z,51.30
2019-02-02T00:52:36.542Z,51.20
2019-02-02T00:55:05.285Z,51.00
2019-02-02T00:57:32.760Z,51.00
2019-02-02T01:00:00.244Z,50.90
2019-02-02T01:02:27.717Z,50.90
2019-02-02T01:04:55.426Z,50.80
2019-02-02T01:07:23.015Z,50.80
2019-02-02T01:09:50.474Z,51.00
2019-02-02T01:12:18.013Z,51.30
2019-02-02T01:14:45.484Z,51.20
2019-02-02T01:17:12.957Z,51.30
2019-02-02T01:19:40.416Z,51.30
2019-02-02T01:22:07.895Z,51.30
2019-02-02T01:24:35.353Z,51.30
2019-02-02T01:27:02.830Z,51.20
2019-02-02T01:29:30.298Z,51.00
2019-02-02T01:31:57.790Z,51.00
2019-02-02T01:34:25.262Z,51.00
2019-02-02T01:36:52.730Z,50.90
2019-02-02T01:39:20.201Z,50.80
2019-02-02T01:41:47.669Z,50.80
2019-02-02T01:44:15.143Z,50.80
2019-02-02T01:46:42.613Z,50.80
2019-02-02T01:49:10.075Z,50.90
2019-02-02T01:51:37.536Z,51.00
2019-02-02T01:54:05.012Z,51.00
2019-02-02T01:56:32.471Z,50.80
2019-02-02T01:58:59.937Z,50.70
2019-02-02T02:01:27.429Z,50.60
2019-02-02T02:03:54.908Z,50.60
2019-02-02T02:06:22.357Z,50.60
2019-02-02T02:08:52.789Z,50.70
2019-02-02T02:11:20.260Z,51.50
2019-02-02T02:13:47.735Z,50.70
2019-02-02T02:16:15.202Z,50.70
2019-02-02T02:18:42.675Z,50.80
2019-02-02T02:21:10.143Z,50.90
2019-02-02T02:23:37.680Z,51.00
2019-02-02T02:26:05.159Z,50.80
2019-02-02T02:28:32.713Z,50.70
2019-02-02T02:31:00.182Z,50.50
2019-02-02T02:33:27.643Z,50.40
2019-02-02T02:35:55.109Z,50.40
2019-02-02T02:38:22.579Z,50.40
2019-02-02T02:40:50.047Z,50.40
2019-02-02T02:43:17.515Z,50.30
2019-02-02T02:45:44.984Z,50.40
2019-02-02T02:48:12.445Z,50.30
2019-02-02T02:50:39.919Z,50.40
2019-02-02T02:53:07.374Z,50.40
2019-02-02T02:55:34.848Z,50.40
2019-02-02T02:58:02.309Z,50.30
2019-02-02T03:00:29.950Z,50.10
2019-02-02T03:02:57.518Z,50.10
2019-02-02T03:05:24.983Z,50.00
2019-02-02T03:07:53.114Z,50.20
2019-02-02T03:10:22.215Z,50.20
2019-02-02T03:12:49.677Z,50.20
2019-02-02T03:15:17.814Z,50.30
2019-02-02T03:17:45.269Z,50.20
2019-02-02T03:20:15.919Z,50.30
2019-02-02T03:22:43.562Z,50.50
2019-02-02T03:25:12.214Z,50.50
2019-02-02T03:27:39.682Z,50.50
2019-02-02T03:30:08.733Z,50.60
2019-02-02T03:32:36.341Z,50.60
2019-02-02T03:35:04.575Z,50.60
2019-02-02T03:37:32.045Z,50.50
2019-02-02T03:39:59.530Z,50.50
2019-02-02T03:42:26.989Z,50.40
2019-02-02T03:44:54.458Z,50.40
2019-02-02T03:47:21.930Z,50.40
2019-02-02T03:49:49.389Z,50.20
2019-02-02T03:52:16.872Z,50.10
2019-02-02T03:54:44.334Z,50.10
2019-02-02T03:57:11.827Z,50.10
2019-02-02T03:59:39.290Z,50.30
2019-02-02T04:02:06.752Z,50.30
2019-02-02T04:04:34.217Z,50.30
2019-02-02T04:07:01.699Z,50.20
2019-02-02T04:09:29.174Z,50.00
2019-02-02T04:11:56.639Z,50.00
2019-02-02T04:14:24.097Z,50.00
2019-02-02T04:16:51.567Z,50.00
2019-02-02T04:19:19.030Z,49.80
2019-02-02T04:21:46.497Z,49.70
2019-02-02T04:24:13.981Z,49.70
2019-02-02T04:26:41.446Z,49.70
2019-02-02T04:29:17.581Z,49.90
2019-02-02T04:31:38.110Z,50.00
2019-02-02T04:34:05.576Z,50.00
2019-02-02T04:36:33.042Z,50.00
2019-02-02T04:39:00.510Z,49.70
2019-02-02T04:41:27.977Z,49.70
2019-02-02T04:43:55.440Z,49.70
2019-02-02T04:46:22.925Z,49.80
2019-02-02T04:48:50.394Z,49.70
2019-02-02T04:51:17.860Z,49.70
2019-02-02T04:53:45.321Z,49.70
2019-02-02T04:56:12.787Z,49.70
2019-02-02T04:58:40.249Z,49.70
2019-02-02T05:01:07.718Z,50.00
2019-02-02T05:03:35.189Z,50.00
2019-02-02T05:06:02.658Z,50.00
2019-02-02T05:08:30.122Z,49.70
2019-02-02T05:10:57.590Z,49.80
2019-02-02T05:13:25.066Z,49.70
2019-02-02T05:15:52.562Z,49.70
2019-02-02T05:18:20.091Z,49.70
2019-02-02T05:20:47.558Z,49.70
2019-02-02T05:23:15.021Z,49.70
2019-02-02T05:25:42.494Z,49.70
2019-02-02T05:28:09.956Z,49.70
2019-02-02T05:30:37.433Z,49.70
2019-02-02T05:33:04.896Z,49.70
2019-02-02T05:35:32.369Z,49.20
2019-02-02T05:37:59.842Z,49.90
2019-02-02T05:40:27.309Z,49.80
2019-02-02T05:42:54.774Z,49.90
2019-02-02T05:45:23.120Z,49.80
2019-02-02T05:47:50.580Z,49.70
2019-02-02T05:50:19.116Z,50.30
2019-02-02T05:52:46.577Z,49.70
2019-02-02T05:55:14.921Z,49.70
2019-02-02T05:57:42.390Z,49.70
2019-02-02T06:00:18.928Z,49.70
2019-02-02T06:02:46.507Z,49.70
2019-02-02T06:05:14.082Z,49.70
2019-02-02T06:07:41.545Z,49.70
2019-02-02T06:10:13.429Z,49.80
2019-02-02T06:12:40.889Z,49.90
2019-02-02T06:15:08.359Z,49.70
2019-02-02T06:17:35.994Z,49.70
2019-02-02T06:20:04.841Z,49.70
2019-02-02T06:22:32.310Z,49.60
2019-02-02T06:24:59.783Z,49.70
2019-02-02T06:27:27.337Z,49.70
2019-02-02T06:30:04.078Z,49.70
2019-02-02T06:32:23.997Z,49.50
2019-02-02T06:34:51.477Z,49.50
2019-02-02T06:37:18.939Z,49.70
2019-02-02T06:39:46.413Z,49.70
2019-02-02T06:42:13.873Z,49.50
2019-02-02T06:44:41.355Z,49.30
2019-02-02T06:47:08.821Z,49.20
2019-02-02T06:49:36.280Z,49.10
2019-02-02T06:52:03.745Z,49.00
2019-02-02T06:54:33.863Z,48.90
2019-02-02T06:57:00.389Z,48.80
2019-02-02T06:59:27.855Z,48.70
2019-02-02T07:01:55.397Z,48.70
2019-02-02T07:04:22.866Z,48.70
2019-02-02T07:06:50.342Z,48.60
2019-02-02T07:09:17.811Z,48.60
2019-02-02T07:11:45.371Z,48.50
2019-02-02T07:14:12.834Z,48.50
2019-02-02T07:16:40.309Z,48.50
2019-02-02T07:19:07.780Z,48.50
2019-02-02T07:21:35.243Z,48.50
2019-02-02T07:24:02.700Z,48.40
2019-02-02T07:26:30.171Z,48.30
2019-02-02T07:28:57.634Z,48.30
2019-02-02T07:31:25.274Z,48.10
2019-02-02T07:33:52.917Z,48.50
2019-02-02T07:36:20.386Z,48.60
2019-02-02T07:38:47.849Z,48.60
2019-02-02T07:41:15.306Z,48.50
2019-02-02T07:43:42.779Z,48.60
2019-02-02T07:46:14.904Z,48.60
2019-02-02T07:48:39.434Z,48.80
2019-02-02T07:51:06.893Z,48.80
2019-02-02T07:53:34.365Z,48.90
2019-02-02T07:56:01.830Z,48.90
2019-02-02T07:58:29.327Z,48.90
2019-02-02T08:00:56.870Z,48.90
2019-02-02T08:03:24.347Z,48.80
2019-02-02T08:05:51.810Z,48.80
2019-02-02T08:08:19.285Z,48.80
2019-02-02T08:10:46.746Z,48.80
2019-02-02T08:13:14.554Z,48.70
2019-02-02T08:15:42.019Z,48.60
2019-02-02T08:18:09.487Z,48.70
2019-02-02T08:20:36.944Z,48.80
2019-02-02T08:23:04.402Z,48.80
2019-02-02T08:25:31.971Z,48.80
2019-02-02T08:27:59.434Z,48.80
2019-02-02T08:30:28.186Z,48.70
2019-02-02T08:32:55.646Z,48.70
2019-02-02T08:35:23.128Z,48.60
2019-02-02T08:37:50.597Z,48.60
2019-02-02T08:40:18.739Z,48.60
2019-02-02T08:42:46.190Z,48.60
2019-02-02T08:45:14.129Z,48.60
2019-02-02T08:47:41.600Z,48.60
2019-02-02T08:50:16.642Z,48.60
2019-02-02T08:52:44.109Z,48.60
2019-02-02T08:55:11.610Z,48.60
2019-02-02T08:57:39.259Z,48.60
2019-02-02T09:00:16.654Z,48.50
2019-02-02T09:02:44.130Z,48.50
2019-02-02T09:05:12.471Z,48.50
2019-02-02T09:07:39.986Z,48.40
2019-02-02T09:10:09.355Z,48.30
2019-02-02T09:12:36.815Z,49.00
2019-02-02T09:15:05.749Z,48.60
2019-02-02T09:17:33.222Z,48.50
2019-02-02T09:20:00.962Z,48.80
2019-02-02T09:22:28.432Z,48.50
2019-02-02T09:24:55.921Z,48.50
2019-02-02T09:27:23.397Z,48.60
2019-02-02T09:29:50.949Z,48.70
2019-02-02T09:32:18.427Z,48.70
2019-02-02T09:34:45.911Z,48.70
2019-02-02T09:37:13.387Z,48.60
2019-02-02T09:39:40.879Z,48.50
2019-02-02T09:42:08.405Z,48.40
2019-02-02T09:44:35.845Z,48.30
2019-02-02T09:47:03.320Z,48.30
2019-02-02T09:49:30.782Z,48.30
2019-02-02T09:51:58.269Z,48.40
2019-02-02T09:54:26.907Z,48.50
2019-02-02T09:56:54.685Z,48.30
2019-02-02T09:59:22.224Z,48.40
2019-02-02T10:01:49.690Z,48.60
2019-02-02T10:04:17.167Z,48.80
2019-02-02T10:06:44.639Z,48.80
2019-02-02T10:09:12.118Z,48.80
2019-02-02T10:11:39.584Z,48.90
2019-02-02T10:14:07.051Z,48.80
2019-02-02T10:16:34.526Z,48.60
2019-02-02T10:19:02.190Z,48.60
2019-02-02T10:21:29.775Z,48.60
2019-02-02T10:23:57.255Z,48.50
2019-02-02T10:26:24.731Z,48.40
2019-02-02T10:28:52.198Z,48.60
2019-02-02T10:31:19.673Z,48.50
2019-02-02T10:33:47.138Z,48.50
2019-02-02T10:36:14.801Z,48.50
2019-02-02T10:38:42.441Z,48.30
2019-02-02T10:41:09.896Z,48.40
2019-02-02T10:43:37.391Z,48.20
2019-02-02T10:46:04.855Z,48.20
2019-02-02T10:48:32.334Z,48.20
2019-02-02T10:50:59.896Z,48.20
2019-02-02T10:53:27.352Z,48.20
2019-02-02T10:55:54.813Z,48.20
2019-02-02T10:58:22.286Z,48.20
2019-02-02T11:00:49.754Z,48.20
2019-02-02T11:03:17.215Z,48.20
2019-02-02T11:05:44.696Z,48.20
2019-02-02T11:08:12.434Z,48.20
2019-02-02T11:10:40.037Z,48.20
2019-02-02T11:13:07.671Z,48.40
2019-02-02T11:15:35.800Z,48.20
2019-02-02T11:18:03.474Z,48.30
2019-02-02T11:20:32.332Z,48.40
2019-02-02T11:22:59.980Z,48.20
2019-02-02T11:25:27.821Z,48.30
2019-02-02T11:27:55.318Z,48.20
2019-02-02T11:30:25.979Z,48.20
2019-02-02T11:32:53.437Z,48.20
2019-02-02T11:35:21.382Z,48.20
2019-02-02T11:37:48.852Z,48.20
2019-02-02T11:40:20.607Z,48.20
2019-02-02T11:42:48.070Z,47.70
2019-02-02T11:45:15.542Z,48.10
2019-02-02T11:47:43.011Z,48.60
2019-02-02T11:50:12.108Z,48.80
2019-02-02T11:52:40.065Z,48.20
2019-02-02T11:55:09.007Z,48.20
2019-02-02T11:57:36.486Z,48.10
2019-02-02T12:00:05.600Z,48.10
2019-02-02T12:02:33.062Z,48.20
2019-02-02T12:05:00.539Z,48.30
2019-02-02T12:07:28.006Z,48.30
2019-02-02T12:09:56.668Z,48.20
2019-02-02T12:12:24.138Z,48.20
2019-02-02T12:14:51.715Z,48.30
2019-02-02T12:17:19.177Z,48.20
2019-02-02T12:19:46.636Z,48.20
2019-02-02T12:22:14.108Z,48.20
2019-02-02T12:24:41.561Z,48.20
2019-02-02T12:27:09.041Z,48.20
2019-02-02T12:29:36.501Z,48.20
2019-02-02T12:32:03.994Z,48.20
2019-02-02T12:34:31.467Z,48.20
2019-02-02T12:36:58.976Z,48.20
2019-02-02T12:39:26.437Z,48.20
2019-02-02T12:41:53.896Z,48.20
2019-02-02T12:44:21.362Z,48.20
2019-02-02T12:46:48.871Z,48.20
2019-02-02T12:49:16.338Z,48.20
2019-02-02T12:51:43.894Z,48.20
2019-02-02T12:54:11.363Z,48.10
2019-02-02T12:56:38.833Z,48.20
2019-02-02T12:59:06.309Z,48.00
2019-02-02T13:01:33.785Z,48.00
2019-02-02T13:04:05.131Z,48.00
2019-02-02T13:06:30.437Z,47.90
2019-02-02T13:08:57.902Z,47.90
2019-02-02T13:11:25.373Z,48.10
2019-02-02T13:13:52.833Z,48.40
2019-02-02T13:16:20.297Z,49.00
2019-02-02T13:18:47.762Z,48.40
2019-02-02T13:21:15.240Z,48.50
2019-02-02T13:23:42.694Z,49.30
2019-02-02T13:26:10.162Z,49.10
2019-02-02T13:28:37.626Z,49.70
2019-02-02T13:31:05.099Z,49.50
2019-02-02T13:33:32.570Z,49.50
2019-02-02T13:36:00.042Z,49.60
2019-02-02T13:38:27.514Z,49.40
2019-02-02T13:40:54.978Z,49.40
2019-02-02T13:43:22.708Z,49.40
2019-02-02T13:45:50.135Z,49.40
2019-02-02T13:48:17.621Z,49.30
2019-02-02T13:50:45.134Z,49.30
2019-02-02T13:53:12.646Z,49.20
2019-02-02T13:55:40.152Z,49.10
2019-02-02T13:58:07.657Z,49.00
2019-02-02T14:00:35.294Z,48.90
2019-02-02T14:03:03.875Z,48.80
2019-02-02T14:05:31.703Z,48.80
2019-02-02T14:08:00.249Z,48.90
2019-02-02T14:10:28.940Z,48.90
2019-02-02T14:12:56.417Z,48.80
2019-02-02T14:15:24.198Z,48.80
2019-02-02T14:17:51.649Z,49.00
2019-02-02T14:20:19.118Z,48.90
2019-02-02T14:22:46.581Z,48.80
2019-02-02T14:25:14.825Z,48.60
2019-02-02T14:27:42.298Z,48.70
2019-02-02T14:30:14.288Z,49.40
2019-02-02T14:32:41.765Z,48.30
2019-02-02T14:35:10.609Z,48.60
2019-02-02T14:37:38.077Z,48.60
2019-02-02T14:40:07.402Z,48.90
2019-02-02T14:42:34.892Z,48.80
2019-02-02T14:45:02.359Z,48.80
2019-02-02T14:47:29.826Z,48.80
2019-02-02T14:49:57.289Z,48.80
2019-02-02T14:52:24.776Z,48.80
2019-02-02T14:54:52.258Z,48.90
2019-02-02T14:57:19.726Z,48.60
2019-02-02T14:59:47.198Z,48.60
2019-02-02T15:02:14.717Z,48.60
2019-02-02T15:04:42.192Z,48.60
2019-02-02T15:07:09.658Z,48.20
2019-02-02T15:09:37.154Z,48.50
2019-02-02T15:12:04.617Z,48.60
2019-02-02T15:14:32.082Z,48.70
2019-02-02T15:16:59.549Z,48.70
2019-02-02T15:19:27.009Z,48.70
2019-02-02T15:21:54.485Z,48.70
2019-02-02T15:24:21.949Z,48.80
2019-02-02T15:28:54.797Z,48.80
2019-02-02T15:31:22.267Z,48.70
2019-02-02T15:33:49.722Z,48.80
2019-02-02T15:36:17.235Z,48.80
2019-02-02T15:38:44.683Z,48.80
2019-02-02T15:41:12.156Z,48.60
2019-02-02T15:43:39.624Z,48.50
2019-02-02T15:46:07.097Z,48.50
2019-02-02T15:48:34.561Z,48.40
2019-02-02T15:51:02.035Z,48.50
2019-02-02T15:53:29.501Z,48.50
2019-02-02T15:55:56.991Z,48.70
2019-02-02T15:58:24.443Z,48.60
2019-02-02T16:00:51.901Z,48.70
2019-02-02T16:03:19.361Z,48.80
2019-02-02T16:05:46.862Z,48.70
2019-02-02T16:08:14.331Z,48.70
2019-02-02T16:10:41.965Z,48.60
2019-02-02T16:13:09.436Z,48.70
2019-02-02T16:15:36.915Z,48.50
2019-02-02T16:18:04.663Z,48.50
2019-02-02T16:20:33.498Z,48.60
2019-02-02T16:23:00.971Z,48.80
2019-02-02T16:25:28.438Z,48.90
2019-02-02T16:27:55.910Z,48.80
2019-02-02T16:30:26.803Z,48.60
2019-02-02T16:32:54.270Z,48.60
2019-02-02T16:35:22.007Z,48.50
2019-02-02T16:37:49.484Z,48.30
2019-02-02T16:40:18.009Z,48.20
2019-02-02T16:42:45.485Z,48.20
2019-02-02T16:45:16.760Z,48.20
2019-02-02T16:47:44.243Z,48.20
2019-02-02T16:50:12.878Z,48.50
2019-02-02T16:52:40.351Z,48.50
2019-02-02T16:55:08.886Z,48.50
2019-02-02T16:57:36.756Z,48.60
2019-02-02T17:00:05.978Z,48.50
2019-02-02T17:02:33.520Z,48.40
2019-02-02T17:05:01.053Z,48.30
2019-02-02T17:07:28.611Z,48.20
2019-02-02T17:09:56.066Z,48.20
2019-02-02T17:12:23.526Z,48.30
2019-02-02T17:14:51.199Z,48.20
2019-02-02T17:17:18.678Z,48.20
2019-02-02T17:19:46.142Z,48.20
2019-02-02T17:22:13.609Z,48.20
2019-02-02T17:24:41.079Z,48.20
2019-02-02T17:27:08.821Z,48.40
2019-02-02T17:29:36.286Z,48.30
2019-02-02T17:32:03.745Z,48.40
2019-02-02T17:34:31.553Z,48.50
2019-02-02T17:36:59.018Z,48.50
2019-02-02T17:39:26.482Z,48.50
2019-02-02T17:41:53.950Z,48.50
2019-02-02T17:44:21.530Z,48.50
2019-02-02T17:46:48.998Z,48.50
2019-02-02T17:49:16.534Z,49.10
2019-02-02T17:51:43.994Z,48.50
2019-02-02T17:54:11.725Z,49.00
2019-02-02T17:56:39.182Z,48.40
2019-02-02T17:59:06.668Z,48.50
2019-02-02T18:01:34.390Z,48.50
2019-02-02T18:04:01.853Z,48.60
2019-02-02T18:06:29.321Z,48.70
2019-02-02T18:08:56.785Z,48.70
2019-02-02T18:11:24.250Z,48.70
2019-02-02T18:13:51.777Z,48.60
2019-02-02T18:16:19.245Z,48.70
2019-02-02T18:18:46.713Z,48.70
2019-02-02T18:21:14.186Z,48.90
2019-02-02T18:23:41.727Z,48.70
2019-02-02T18:26:09.209Z,48.70
2019-02-02T18:28:36.686Z,48.70
2019-02-02T18:31:04.151Z,48.60
2019-02-02T18:33:31.617Z,48.70
2019-02-02T18:36:00.057Z,48.70
2019-02-02T18:38:27.517Z,48.60
2019-02-02T18:40:55.046Z,48.60
2019-02-02T18:43:22.592Z,48.50
2019-02-02T18:45:50.067Z,48.50
2019-02-02T18:48:17.602Z,48.20
2019-02-02T18:50:45.150Z,48.40
2019-02-02T18:53:12.621Z,48.20
2019-02-02T18:55:41.354Z,48.20
2019-02-02T18:58:08.929Z,48.20
2019-02-02T19:00:36.570Z,48.20
2019-02-02T19:03:04.643Z,48.20
2019-02-02T19:05:32.508Z,48.20
2019-02-02T19:08:00.085Z,48.20
2019-02-02T19:10:29.271Z,48.20
2019-02-02T19:12:57.025Z,48.20
2019-02-02T19:15:24.571Z,48.20
2019-02-02T19:17:52.050Z,48.30
2019-02-02T19:20:20.569Z,48.20
2019-02-02T19:22:48.099Z,48.20
2019-02-02T19:25:15.896Z,48.20
2019-02-02T19:27:43.718Z,48.20
2019-02-02T19:30:12.920Z,48.10
2019-02-02T19:32:40.690Z,48.90
2019-02-02T19:35:15.627Z,48.20
2019-02-02T19:37:37.912Z,48.20
2019-02-02T19:40:07.155Z,48.20
2019-02-02T19:42:35.125Z,48.20
2019-02-02T19:45:03.040Z,48.30
2019-02-02T19:47:30.858Z,48.50
2019-02-02T19:49:58.815Z,48.70
2019-02-02T19:52:26.673Z,48.70
2019-02-02T19:54:54.585Z,49.30
2019-02-02T19:57:22.332Z,48.70
2019-02-02T19:59:50.237Z,48.60
2019-02-02T20:02:17.887Z,48.50
2019-02-02T20:04:45.716Z,48.40
2019-02-02T20:07:13.829Z,48.30
2019-02-02T20:09:41.653Z,48.50
2019-02-02T20:12:09.517Z,48.50
2019-02-02T20:14:37.295Z,48.90
2019-02-02T20:17:05.178Z,49.00
2019-02-02T20:19:32.822Z,48.90
2019-02-02T20:22:00.610Z,48.70
2019-02-02T20:24:28.084Z,48.60
2019-02-02T20:26:55.741Z,48.50
2019-02-02T20:29:23.575Z,48.60
2019-02-02T20:31:51.324Z,48.60
2019-02-02T20:34:19.011Z,48.60
2019-02-02T20:36:47.076Z,48.60
2019-02-02T20:39:14.817Z,48.60
2019-02-02T20:41:42.709Z,48.50
2019-02-02T20:44:10.546Z,48.80
2019-02-02T20:46:38.447Z,48.90
2019-02-02T20:49:08.057Z,49.00
2019-02-02T20:51:35.518Z,49.00
2019-02-02T20:54:03.308Z,48.80
2019-02-02T20:56:31.269Z,48.60
2019-02-02T20:58:59.354Z,48.50
2019-02-02T21:01:26.904Z,48.60
2019-02-02T21:03:54.447Z,48.30
2019-02-02T21:06:22.193Z,48.40
2019-02-02T21:08:49.974Z,48.50
2019-02-02T21:11:17.806Z,48.50
2019-02-02T21:13:45.787Z,48.50
2019-02-02T21:16:13.252Z,48.60
2019-02-02T21:18:40.800Z,48.80
2019-02-02T21:21:08.257Z,48.90
2019-02-02T21:23:35.874Z,48.80
2019-02-02T21:26:03.423Z,48.60
2019-02-02T21:28:31.994Z,48.60
2019-02-02T21:30:59.577Z,48.20
2019-02-02T21:33:27.049Z,48.60
2019-02-02T21:36:03.539Z,48.30
2019-02-02T21:38:23.798Z,48.30
2019-02-02T21:40:51.281Z,48.20
2019-02-02T21:43:19.118Z,48.20
2019-02-02T21:45:46.658Z,48.30
2019-02-02T21:48:14.214Z,48.70
2019-02-02T21:50:41.697Z,48.70
2019-02-02T21:53:09.170Z,48.70
2019-02-02T21:55:36.629Z,48.80
2019-02-02T21:58:04.257Z,48.80
2019-02-02T22:00:32.903Z,48.90
2019-02-02T22:03:00.387Z,48.80
2019-02-02T22:05:27.930Z,48.80
2019-02-02T22:07:55.394Z,48.90
2019-02-02T22:10:22.883Z,48.60
2019-02-02T22:12:52.582Z,49.20
2019-02-02T22:15:21.202Z,48.60
2019-02-02T22:17:48.666Z,48.60
2019-02-02T22:20:16.814Z,48.60
2019-02-02T22:22:44.276Z,48.50
2019-02-02T22:25:13.121Z,48.60
2019-02-02T22:27:40.961Z,48.70
2019-02-02T22:30:10.149Z,49.30
2019-02-02T22:32:37.614Z,48.60
2019-02-02T22:35:05.091Z,48.50
2019-02-02T22:37:32.562Z,48.40
2019-02-02T22:40:00.048Z,48.40
2019-02-02T22:42:27.989Z,48.30
2019-02-02T22:44:55.461Z,48.30
2019-02-02T22:47:22.926Z,48.90
2019-02-02T22:49:50.397Z,48.30
2019-02-02T22:52:17.858Z,48.20
2019-02-02T22:54:45.322Z,48.20
2019-02-02T22:57:12.794Z,48.50
2019-02-02T22:59:40.249Z,48.70
2019-02-02T23:02:08.290Z,48.50
2019-02-02T23:04:37.530Z,48.30
2019-02-02T23:07:09.626Z,48.50
2019-02-02T23:09:50.714Z,48.30
2019-02-02T23:12:35.134Z,48.20
2019-02-02T23:15:20.853Z,48.20
2019-02-02T23:17:48.321Z,48.20
2019-02-02T23:20:15.785Z,48.20
2019-02-02T23:22:43.252Z,48.10
2019-02-02T23:25:10.715Z,48.20
2019-02-02T23:27:38.180Z,48.40
2019-02-02T23:30:07.278Z,48.50
2019-02-02T23:32:34.749Z,48.50
2019-02-02T23:35:02.222Z,48.20
2019-02-02T23:37:29.691Z,48.10
2019-02-02T23:39:57.150Z,48.10
2019-02-02T23:42:24.621Z,48.10
2019-02-02T23:44:52.090Z,48.20
2019-02-02T23:47:19.832Z,48.10
2019-02-02T23:49:47.297Z,48.00
2019-02-02T23:52:14.766Z,48.00
2019-02-02T23:54:42.242Z,48.00
2019-02-02T23:57:09.706Z,48.20
2019-02-02T23:59:37.174Z,48.20
